sensor_id;sensor_type;location;lat;lon;timestamp;P1;durP1;ratioP1;P2;durP2;ratioP2
56401;SDS011;42299;35.160;26.100;2023-04-01T00:00:24;19.75;;;4.50;;
56401;SDS011;42299;35.160;26.100;2023-04-01T00:01:45;15.25;;;4.95;;
56401;SDS011;42299;35.160;26.100;2023-04-01T00:03:09;24.23;;;5.43;;
56401;SDS011;42299;35.160;26.100;2023-04-01T00:04:30;17.38;;;4.30;;
56401;SDS011;42299;35.160;26.100;2023-04-01T00:05:53;16.52;;;4.90;;
56401;SDS011;42299;35.160;26.100;2023-04-01T00:07:14;15.40;;;4.97;;
56401;SDS011;42299;35.160;26.100;2023-04-01T00:08:36;18.40;;;5.47;;
56401;SDS011;42299;35.160;26.100;2023-04-01T00:09:58;18.30;;;5.85;;
56401;SDS011;42299;35.160;26.100;2023-04-01T00:11:20;13.90;;;4.47;;
56401;SDS011;42299;35.160;26.100;2023-04-01T00:12:41;12.45;;;5.05;;
56401;SDS011;42299;35.160;26.100;2023-04-01T00:14:04;20.40;;;4.45;;
56401;SDS011;42299;35.160;26.100;2023-04-01T00:15:27;15.32;;;5.22;;
56401;SDS011;42299;35.160;26.100;2023-04-01T00:16:48;17.00;;;4.25;;
56401;SDS011;42299;35.160;26.100;2023-04-01T00:18:12;14.15;;;4.10;;
56401;SDS011;42299;35.160;26.100;2023-04-01T00:19:34;17.20;;;4.30;;
56401;SDS011;42299;35.160;26.100;2023-04-01T00:20:57;17.95;;;4.18;;
56401;SDS011;42299;35.160;26.100;2023-04-01T00:22:18;21.55;;;4.93;;
56401;SDS011;42299;35.160;26.100;2023-04-01T00:23:41;17.75;;;4.32;;
56401;SDS011;42299;35.160;26.100;2023-04-01T00:25:02;18.70;;;4.57;;
56401;SDS011;42299;35.160;26.100;2023-04-01T00:26:25;16.40;;;4.38;;
56401;SDS011;42299;35.160;26.100;2023-04-01T00:27:48;18.13;;;4.43;;
56401;SDS011;42299;35.160;26.100;2023-04-01T00:29:09;16.55;;;4.53;;
56401;SDS011;42299;35.160;26.100;2023-04-01T00:30:32;16.85;;;3.90;;
56401;SDS011;42299;35.160;26.100;2023-04-01T00:31:55;15.15;;;3.80;;
56401;SDS011;42299;35.160;26.100;2023-04-01T00:33:20;21.35;;;4.90;;
56401;SDS011;42299;35.160;26.100;2023-04-01T00:34:42;21.38;;;4.68;;
56401;SDS011;42299;35.160;26.100;2023-04-01T00:36:05;14.93;;;4.13;;
56401;SDS011;42299;35.160;26.100;2023-04-01T00:37:30;20.75;;;4.57;;
56401;SDS011;42299;35.160;26.100;2023-04-01T00:38:51;18.88;;;4.43;;
56401;SDS011;42299;35.160;26.100;2023-04-01T00:40:21;18.50;;;4.85;;
56401;SDS011;42299;35.160;26.100;2023-04-01T00:41:45;16.40;;;4.85;;
56401;SDS011;42299;35.160;26.100;2023-04-01T00:43:11;17.60;;;4.55;;
56401;SDS011;42299;35.160;26.100;2023-04-01T00:44:34;14.68;;;4.13;;
56401;SDS011;42299;35.160;26.100;2023-04-01T00:45:59;20.40;;;4.15;;
56401;SDS011;42299;35.160;26.100;2023-04-01T00:47:21;14.30;;;5.07;;
56401;SDS011;42299;35.160;26.100;2023-04-01T00:48:48;17.75;;;4.32;;
56401;SDS011;42299;35.160;26.100;2023-04-01T00:50:13;19.83;;;4.90;;
56401;SDS011;42299;35.160;26.100;2023-04-01T00:51:34;17.30;;;4.35;;
56401;SDS011;42299;35.160;26.100;2023-04-01T00:52:59;15.15;;;4.35;;
56401;SDS011;42299;35.160;26.100;2023-04-01T00:54:24;13.95;;;3.80;;
56401;SDS011;42299;35.160;26.100;2023-04-01T00:55:49;15.93;;;4.30;;
56401;SDS011;42299;35.160;26.100;2023-04-01T00:57:17;14.60;;;3.65;;
56401;SDS011;42299;35.160;26.100;2023-04-01T00:58:43;21.52;;;4.57;;
56401;SDS011;42299;35.160;26.100;2023-04-01T01:00:10;16.73;;;4.15;;
56401;SDS011;42299;35.160;26.100;2023-04-01T01:01:35;17.38;;;4.13;;
56401;SDS011;42299;35.160;26.100;2023-04-01T01:02:58;16.55;;;3.78;;
56401;SDS011;42299;35.160;26.100;2023-04-01T01:04:23;20.48;;;4.70;;
56401;SDS011;42299;35.160;26.100;2023-04-01T01:07:34;19.13;;;4.50;;
56401;SDS011;42299;35.160;26.100;2023-04-01T01:09:08;23.80;;;4.50;;
56401;SDS011;42299;35.160;26.100;2023-04-01T01:10:39;13.00;;;3.55;;
56401;SDS011;42299;35.160;26.100;2023-04-01T01:12:05;15.73;;;4.00;;
56401;SDS011;42299;35.160;26.100;2023-04-01T01:13:32;17.67;;;4.38;;
56401;SDS011;42299;35.160;26.100;2023-04-01T01:15:06;16.40;;;3.72;;
56401;SDS011;42299;35.160;26.100;2023-04-01T01:16:34;14.30;;;3.60;;
56401;SDS011;42299;35.160;26.100;2023-04-01T01:18:01;17.05;;;4.28;;
56401;SDS011;42299;35.160;26.100;2023-04-01T01:24:53;16.08;;;4.30;;
56401;SDS011;42299;35.160;26.100;2023-04-01T01:26:34;18.08;;;4.88;;
56401;SDS011;42299;35.160;26.100;2023-04-01T01:28:10;20.08;;;4.10;;
56401;SDS011;42299;35.160;26.100;2023-04-01T01:29:48;15.07;;;4.65;;
56401;SDS011;42299;35.160;26.100;2023-04-01T01:31:20;18.10;;;5.95;;
56401;SDS011;42299;35.160;26.100;2023-04-01T01:33:10;16.50;;;4.15;;
56401;SDS011;42299;35.160;26.100;2023-04-01T01:34:43;14.18;;;4.80;;
56401;SDS011;42299;35.160;26.100;2023-04-01T01:36:15;17.13;;;4.68;;
56401;SDS011;42299;35.160;26.100;2023-04-01T01:37:41;18.83;;;4.82;;
56401;SDS011;42299;35.160;26.100;2023-04-01T01:39:06;18.88;;;4.22;;
56401;SDS011;42299;35.160;26.100;2023-04-01T01:40:32;18.25;;;4.20;;
56401;SDS011;42299;35.160;26.100;2023-04-01T01:41:56;13.48;;;3.53;;
56401;SDS011;42299;35.160;26.100;2023-04-01T01:43:23;14.73;;;4.13;;
56401;SDS011;42299;35.160;26.100;2023-04-01T01:44:46;12.82;;;3.60;;
56401;SDS011;42299;35.160;26.100;2023-04-01T01:46:13;13.88;;;3.88;;
56401;SDS011;42299;35.160;26.100;2023-04-01T01:47:39;12.93;;;3.67;;
56401;SDS011;42299;35.160;26.100;2023-04-01T01:49:02;19.20;;;4.97;;
56401;SDS011;42299;35.160;26.100;2023-04-01T01:50:28;20.33;;;5.28;;
56401;SDS011;42299;35.160;26.100;2023-04-01T01:51:52;19.92;;;5.65;;
56401;SDS011;42299;35.160;26.100;2023-04-01T01:53:14;13.60;;;5.22;;
56401;SDS011;42299;35.160;26.100;2023-04-01T01:54:46;18.73;;;6.47;;
56401;SDS011;42299;35.160;26.100;2023-04-01T01:56:10;20.45;;;8.18;;
56401;SDS011;42299;35.160;26.100;2023-04-01T01:57:36;23.88;;;9.80;;
56401;SDS011;42299;35.160;26.100;2023-04-01T01:59:05;19.67;;;5.35;;
56401;SDS011;42299;35.160;26.100;2023-04-01T02:00:32;23.10;;;6.95;;
56401;SDS011;42299;35.160;26.100;2023-04-01T02:01:55;18.58;;;6.88;;
56401;SDS011;42299;35.160;26.100;2023-04-01T02:03:20;20.17;;;4.95;;
56401;SDS011;42299;35.160;26.100;2023-04-01T02:04:45;15.95;;;4.65;;
56401;SDS011;42299;35.160;26.100;2023-04-01T02:06:09;11.25;;;4.68;;
56401;SDS011;42299;35.160;26.100;2023-04-01T02:07:37;16.85;;;4.20;;
56401;SDS011;42299;35.160;26.100;2023-04-01T02:09:03;14.32;;;4.18;;
56401;SDS011;42299;35.160;26.100;2023-04-01T02:10:31;17.40;;;3.58;;
56401;SDS011;42299;35.160;26.100;2023-04-01T02:11:57;13.90;;;3.53;;
56401;SDS011;42299;35.160;26.100;2023-04-01T02:13:24;19.38;;;3.75;;
56401;SDS011;42299;35.160;26.100;2023-04-01T02:14:52;16.55;;;4.40;;
56401;SDS011;42299;35.160;26.100;2023-04-01T02:16:18;16.40;;;3.95;;
56401;SDS011;42299;35.160;26.100;2023-04-01T02:17:48;15.38;;;3.97;;
56401;SDS011;42299;35.160;26.100;2023-04-01T02:19:11;15.48;;;4.10;;
56401;SDS011;42299;35.160;26.100;2023-04-01T02:20:42;16.20;;;4.07;;
56401;SDS011;42299;35.160;26.100;2023-04-01T02:22:08;18.42;;;4.18;;
56401;SDS011;42299;35.160;26.100;2023-04-01T02:23:35;14.70;;;3.88;;
56401;SDS011;42299;35.160;26.100;2023-04-01T02:25:00;13.20;;;3.90;;
56401;SDS011;42299;35.160;26.100;2023-04-01T02:26:25;16.55;;;4.28;;
56401;SDS011;42299;35.160;26.100;2023-04-01T02:27:49;18.15;;;3.65;;
56401;SDS011;42299;35.160;26.100;2023-04-01T02:29:10;18.23;;;3.88;;
56401;SDS011;42299;35.160;26.100;2023-04-01T02:30:34;16.98;;;4.05;;
56401;SDS011;42299;35.160;26.100;2023-04-01T02:31:57;14.20;;;4.10;;
56401;SDS011;42299;35.160;26.100;2023-04-01T02:33:20;13.50;;;3.42;;
56401;SDS011;42299;35.160;26.100;2023-04-01T02:34:43;15.88;;;4.03;;
56401;SDS011;42299;35.160;26.100;2023-04-01T02:36:10;12.30;;;3.75;;
56401;SDS011;42299;35.160;26.100;2023-04-01T02:37:32;18.15;;;4.03;;
56401;SDS011;42299;35.160;26.100;2023-04-01T02:38:57;13.70;;;3.80;;
56401;SDS011;42299;35.160;26.100;2023-04-01T02:40:22;16.88;;;4.63;;
56401;SDS011;42299;35.160;26.100;2023-04-01T02:41:45;18.83;;;5.00;;
56401;SDS011;42299;35.160;26.100;2023-04-01T02:43:07;16.75;;;4.32;;
56401;SDS011;42299;35.160;26.100;2023-04-01T02:44:30;16.85;;;4.93;;
56401;SDS011;42299;35.160;26.100;2023-04-01T02:45:52;16.58;;;4.82;;
56401;SDS011;42299;35.160;26.100;2023-04-01T02:47:14;18.25;;;4.63;;
56401;SDS011;42299;35.160;26.100;2023-04-01T02:48:36;16.58;;;4.38;;
56401;SDS011;42299;35.160;26.100;2023-04-01T02:49:59;15.60;;;4.63;;
56401;SDS011;42299;35.160;26.100;2023-04-01T02:51:20;15.95;;;4.38;;
56401;SDS011;42299;35.160;26.100;2023-04-01T02:52:43;11.63;;;4.13;;
56401;SDS011;42299;35.160;26.100;2023-04-01T02:54:05;18.05;;;4.38;;
56401;SDS011;42299;35.160;26.100;2023-04-01T02:55:28;16.67;;;3.75;;
56401;SDS011;42299;35.160;26.100;2023-04-01T02:56:50;17.75;;;4.15;;
56401;SDS011;42299;35.160;26.100;2023-04-01T02:58:12;14.90;;;3.58;;
56401;SDS011;42299;35.160;26.100;2023-04-01T02:59:35;15.02;;;3.90;;
56401;SDS011;42299;35.160;26.100;2023-04-01T03:00:56;14.90;;;3.13;;
56401;SDS011;42299;35.160;26.100;2023-04-01T03:02:19;12.48;;;3.03;;
56401;SDS011;42299;35.160;26.100;2023-04-01T03:03:41;15.52;;;3.53;;
56401;SDS011;42299;35.160;26.100;2023-04-01T03:05:04;15.73;;;3.80;;
56401;SDS011;42299;35.160;26.100;2023-04-01T03:06:26;12.88;;;3.30;;
56401;SDS011;42299;35.160;26.100;2023-04-01T03:07:49;18.92;;;4.28;;
56401;SDS011;42299;35.160;26.100;2023-04-01T03:09:12;14.07;;;3.90;;
56401;SDS011;42299;35.160;26.100;2023-04-01T03:10:35;16.55;;;3.67;;
56401;SDS011;42299;35.160;26.100;2023-04-01T03:11:58;15.55;;;4.18;;
56401;SDS011;42299;35.160;26.100;2023-04-01T03:13:21;14.52;;;4.18;;
56401;SDS011;42299;35.160;26.100;2023-04-01T03:14:44;16.10;;;3.92;;
56401;SDS011;42299;35.160;26.100;2023-04-01T03:16:07;13.25;;;4.00;;
56401;SDS011;42299;35.160;26.100;2023-04-01T03:17:30;13.90;;;4.18;;
56401;SDS011;42299;35.160;26.100;2023-04-01T03:18:51;15.43;;;4.68;;
56401;SDS011;42299;35.160;26.100;2023-04-01T03:20:15;15.40;;;4.00;;
56401;SDS011;42299;35.160;26.100;2023-04-01T03:21:37;18.67;;;4.25;;
56401;SDS011;42299;35.160;26.100;2023-04-01T03:23:00;14.20;;;3.45;;
56401;SDS011;42299;35.160;26.100;2023-04-01T03:24:24;16.58;;;3.47;;
56401;SDS011;42299;35.160;26.100;2023-04-01T03:25:47;19.95;;;4.43;;
56401;SDS011;42299;35.160;26.100;2023-04-01T03:27:10;14.45;;;3.70;;
56401;SDS011;42299;35.160;26.100;2023-04-01T03:28:31;12.27;;;3.22;;
56401;SDS011;42299;35.160;26.100;2023-04-01T03:29:53;14.18;;;4.00;;
56401;SDS011;42299;35.160;26.100;2023-04-01T03:31:15;21.42;;;4.93;;
56401;SDS011;42299;35.160;26.100;2023-04-01T03:32:43;10.55;;;3.88;;
56401;SDS011;42299;35.160;26.100;2023-04-01T03:34:04;11.82;;;3.53;;
56401;SDS011;42299;35.160;26.100;2023-04-01T03:35:27;16.75;;;4.43;;
56401;SDS011;42299;35.160;26.100;2023-04-01T03:36:50;15.30;;;3.72;;
56401;SDS011;42299;35.160;26.100;2023-04-01T03:38:13;16.52;;;3.75;;
56401;SDS011;42299;35.160;26.100;2023-04-01T03:39:39;11.10;;;2.78;;
56401;SDS011;42299;35.160;26.100;2023-04-01T03:41:00;18.40;;;3.22;;
56401;SDS011;42299;35.160;26.100;2023-04-01T03:42:23;16.40;;;3.38;;
56401;SDS011;42299;35.160;26.100;2023-04-01T03:43:45;15.23;;;3.15;;
56401;SDS011;42299;35.160;26.100;2023-04-01T03:45:07;13.43;;;3.17;;
56401;SDS011;42299;35.160;26.100;2023-04-01T03:46:32;11.32;;;2.80;;
56401;SDS011;42299;35.160;26.100;2023-04-01T03:47:53;13.02;;;3.40;;
56401;SDS011;42299;35.160;26.100;2023-04-01T03:49:16;19.48;;;3.30;;
56401;SDS011;42299;35.160;26.100;2023-04-01T03:50:38;20.08;;;7.20;;
56401;SDS011;42299;35.160;26.100;2023-04-01T03:52:00;19.48;;;8.80;;
56401;SDS011;42299;35.160;26.100;2023-04-01T03:53:23;14.60;;;6.82;;
56401;SDS011;42299;35.160;26.100;2023-04-01T03:54:51;20.95;;;9.10;;
56401;SDS011;42299;35.160;26.100;2023-04-01T03:56:13;24.65;;;16.10;;
56401;SDS011;42299;35.160;26.100;2023-04-01T03:57:35;30.13;;;20.23;;
56401;SDS011;42299;35.160;26.100;2023-04-01T03:59:07;21.10;;;12.50;;
56401;SDS011;42299;35.160;26.100;2023-04-01T04:00:30;18.20;;;7.90;;
56401;SDS011;42299;35.160;26.100;2023-04-01T04:01:51;20.05;;;7.57;;
56401;SDS011;42299;35.160;26.100;2023-04-01T04:03:14;20.38;;;4.82;;
56401;SDS011;42299;35.160;26.100;2023-04-01T04:04:36;24.55;;;13.43;;
56401;SDS011;42299;35.160;26.100;2023-04-01T04:05:58;13.48;;;8.15;;
56401;SDS011;42299;35.160;26.100;2023-04-01T04:07:20;19.17;;;8.82;;
56401;SDS011;42299;35.160;26.100;2023-04-01T04:09:02;18.42;;;5.25;;
56401;SDS011;42299;35.160;26.100;2023-04-01T04:10:26;17.75;;;5.05;;
56401;SDS011;42299;35.160;26.100;2023-04-01T04:11:49;16.60;;;7.20;;
56401;SDS011;42299;35.160;26.100;2023-04-01T04:14:39;18.85;;;7.90;;
56401;SDS011;42299;35.160;26.100;2023-04-01T04:16:01;24.02;;;12.25;;
56401;SDS011;42299;35.160;26.100;2023-04-01T04:17:24;14.05;;;4.65;;
56401;SDS011;42299;35.160;26.100;2023-04-01T04:18:47;21.42;;;9.93;;
56401;SDS011;42299;35.160;26.100;2023-04-01T04:20:08;15.13;;;4.88;;
56401;SDS011;42299;35.160;26.100;2023-04-01T04:21:31;15.02;;;4.38;;
56401;SDS011;42299;35.160;26.100;2023-04-01T04:22:54;15.20;;;3.78;;
56401;SDS011;42299;35.160;26.100;2023-04-01T04:24:15;16.13;;;3.10;;
56401;SDS011;42299;35.160;26.100;2023-04-01T04:26:03;13.70;;;3.38;;
56401;SDS011;42299;35.160;26.100;2023-04-01T04:27:26;12.30;;;3.15;;
56401;SDS011;42299;35.160;26.100;2023-04-01T04:28:57;15.82;;;3.05;;
56401;SDS011;42299;35.160;26.100;2023-04-01T04:30:20;13.15;;;3.65;;
56401;SDS011;42299;35.160;26.100;2023-04-01T04:31:42;11.98;;;3.42;;
56401;SDS011;42299;35.160;26.100;2023-04-01T04:33:06;16.20;;;3.80;;
56401;SDS011;42299;35.160;26.100;2023-04-01T04:34:29;14.30;;;2.65;;
56401;SDS011;42299;35.160;26.100;2023-04-01T04:35:54;16.25;;;4.07;;
56401;SDS011;42299;35.160;26.100;2023-04-01T04:37:17;10.20;;;2.90;;
56401;SDS011;42299;35.160;26.100;2023-04-01T04:38:40;17.13;;;3.05;;
56401;SDS011;42299;35.160;26.100;2023-04-01T04:40:03;12.52;;;2.72;;
56401;SDS011;42299;35.160;26.100;2023-04-01T04:41:28;14.25;;;3.05;;
56401;SDS011;42299;35.160;26.100;2023-04-01T04:42:50;13.90;;;3.00;;
56401;SDS011;42299;35.160;26.100;2023-04-01T04:44:11;16.42;;;3.13;;
56401;SDS011;42299;35.160;26.100;2023-04-01T04:45:34;16.08;;;3.17;;
56401;SDS011;42299;35.160;26.100;2023-04-01T04:46:56;11.23;;;3.78;;
56401;SDS011;42299;35.160;26.100;2023-04-01T04:48:19;13.98;;;4.18;;
56401;SDS011;42299;35.160;26.100;2023-04-01T04:49:41;17.55;;;3.95;;
56401;SDS011;42299;35.160;26.100;2023-04-01T04:51:04;13.98;;;3.40;;
56401;SDS011;42299;35.160;26.100;2023-04-01T04:52:25;15.20;;;3.47;;
56401;SDS011;42299;35.160;26.100;2023-04-01T04:53:48;17.33;;;3.50;;
56401;SDS011;42299;35.160;26.100;2023-04-01T04:55:11;16.25;;;3.45;;
56401;SDS011;42299;35.160;26.100;2023-04-01T04:56:37;14.55;;;3.63;;
56401;SDS011;42299;35.160;26.100;2023-04-01T04:58:02;17.70;;;4.15;;
56401;SDS011;42299;35.160;26.100;2023-04-01T04:59:23;17.35;;;3.85;;
56401;SDS011;42299;35.160;26.100;2023-04-01T05:01:14;14.18;;;3.50;;
56401;SDS011;42299;35.160;26.100;2023-04-01T05:02:38;16.55;;;3.08;;
56401;SDS011;42299;35.160;26.100;2023-04-01T05:04:01;10.85;;;3.05;;
56401;SDS011;42299;35.160;26.100;2023-04-01T05:05:24;13.10;;;2.92;;
56401;SDS011;42299;35.160;26.100;2023-04-01T05:06:45;12.60;;;2.78;;
56401;SDS011;42299;35.160;26.100;2023-04-01T05:08:08;10.40;;;2.63;;
56401;SDS011;42299;35.160;26.100;2023-04-01T05:09:31;14.00;;;2.85;;
56401;SDS011;42299;35.160;26.100;2023-04-01T05:10:53;11.55;;;2.80;;
56401;SDS011;42299;35.160;26.100;2023-04-01T05:12:16;11.57;;;3.42;;
56401;SDS011;42299;35.160;26.100;2023-04-01T05:13:54;15.40;;;3.88;;
56401;SDS011;42299;35.160;26.100;2023-04-01T05:15:16;17.15;;;3.47;;
56401;SDS011;42299;35.160;26.100;2023-04-01T05:16:38;11.80;;;2.50;;
56401;SDS011;42299;35.160;26.100;2023-04-01T05:18:00;14.15;;;3.25;;
56401;SDS011;42299;35.160;26.100;2023-04-01T05:19:23;14.68;;;3.45;;
56401;SDS011;42299;35.160;26.100;2023-04-01T05:20:46;16.63;;;3.05;;
56401;SDS011;42299;35.160;26.100;2023-04-01T05:22:09;14.88;;;3.67;;
56401;SDS011;42299;35.160;26.100;2023-04-01T05:23:32;15.90;;;4.03;;
56401;SDS011;42299;35.160;26.100;2023-04-01T05:24:55;11.52;;;3.50;;
56401;SDS011;42299;35.160;26.100;2023-04-01T05:26:17;8.15;;;2.53;;
56401;SDS011;42299;35.160;26.100;2023-04-01T05:27:42;13.20;;;3.78;;
56401;SDS011;42299;35.160;26.100;2023-04-01T05:29:03;17.92;;;4.47;;
56401;SDS011;42299;35.160;26.100;2023-04-01T05:30:27;13.02;;;3.60;;
56401;SDS011;42299;35.160;26.100;2023-04-01T05:31:59;12.93;;;3.53;;
56401;SDS011;42299;35.160;26.100;2023-04-01T05:33:22;12.70;;;3.67;;
56401;SDS011;42299;35.160;26.100;2023-04-01T05:34:45;16.40;;;3.50;;
56401;SDS011;42299;35.160;26.100;2023-04-01T05:36:08;17.02;;;4.15;;
56401;SDS011;42299;35.160;26.100;2023-04-01T05:37:33;18.20;;;4.93;;
56401;SDS011;42299;35.160;26.100;2023-04-01T05:38:54;19.98;;;6.15;;
56401;SDS011;42299;35.160;26.100;2023-04-01T05:40:22;25.90;;;9.25;;
56401;SDS011;42299;35.160;26.100;2023-04-01T05:41:46;28.77;;;14.63;;
56401;SDS011;42299;35.160;26.100;2023-04-01T05:43:10;33.67;;;18.48;;
56401;SDS011;42299;35.160;26.100;2023-04-01T05:44:34;36.90;;;22.40;;
56401;SDS011;42299;35.160;26.100;2023-04-01T05:45:57;41.67;;;23.27;;
56401;SDS011;42299;35.160;26.100;2023-04-01T05:47:46;26.65;;;14.07;;
56401;SDS011;42299;35.160;26.100;2023-04-01T05:49:09;20.27;;;9.48;;
56401;SDS011;42299;35.160;26.100;2023-04-01T05:50:32;19.73;;;8.93;;
56401;SDS011;42299;35.160;26.100;2023-04-01T05:51:53;20.55;;;6.80;;
56401;SDS011;42299;35.160;26.100;2023-04-01T05:53:16;16.15;;;5.70;;
56401;SDS011;42299;35.160;26.100;2023-04-01T05:56:03;14.63;;;4.95;;
56401;SDS011;42299;35.160;26.100;2023-04-01T05:57:32;18.38;;;5.30;;
56401;SDS011;42299;35.160;26.100;2023-04-01T05:58:55;14.82;;;4.82;;
56401;SDS011;42299;35.160;26.100;2023-04-01T06:00:18;16.38;;;4.65;;
56401;SDS011;42299;35.160;26.100;2023-04-01T06:01:42;14.85;;;4.25;;
56401;SDS011;42299;35.160;26.100;2023-04-01T06:03:05;12.07;;;4.20;;
56401;SDS011;42299;35.160;26.100;2023-04-01T06:04:28;15.85;;;4.63;;
56401;SDS011;42299;35.160;26.100;2023-04-01T06:05:59;14.65;;;4.43;;
56401;SDS011;42299;35.160;26.100;2023-04-01T06:07:22;15.57;;;4.10;;
56401;SDS011;42299;35.160;26.100;2023-04-01T06:08:43;11.25;;;3.38;;
56401;SDS011;42299;35.160;26.100;2023-04-01T06:10:10;17.10;;;4.30;;
56401;SDS011;42299;35.160;26.100;2023-04-01T06:11:35;11.98;;;4.72;;
56401;SDS011;42299;35.160;26.100;2023-04-01T06:13:04;13.68;;;4.07;;
56401;SDS011;42299;35.160;26.100;2023-04-01T06:14:35;15.00;;;3.92;;
56401;SDS011;42299;35.160;26.100;2023-04-01T06:16:08;14.20;;;3.78;;
56401;SDS011;42299;35.160;26.100;2023-04-01T06:17:41;16.02;;;3.95;;
56401;SDS011;42299;35.160;26.100;2023-04-01T06:19:21;14.02;;;3.65;;
56401;SDS011;42299;35.160;26.100;2023-04-01T06:20:50;10.70;;;3.55;;
56401;SDS011;42299;35.160;26.100;2023-04-01T06:22:27;13.23;;;3.63;;
56401;SDS011;42299;35.160;26.100;2023-04-01T06:24:02;12.98;;;3.25;;
56401;SDS011;42299;35.160;26.100;2023-04-01T06:25:49;12.93;;;3.55;;
56401;SDS011;42299;35.160;26.100;2023-04-01T06:27:27;15.85;;;6.45;;
56401;SDS011;42299;35.160;26.100;2023-04-01T06:29:07;15.40;;;4.85;;
56401;SDS011;42299;35.160;26.100;2023-04-01T06:30:53;15.05;;;4.85;;
56401;SDS011;42299;35.160;26.100;2023-04-01T06:32:38;15.20;;;3.78;;
56401;SDS011;42299;35.160;26.100;2023-04-01T06:34:23;13.18;;;3.40;;
56401;SDS011;42299;35.160;26.100;2023-04-01T06:36:08;14.20;;;3.97;;
56401;SDS011;42299;35.160;26.100;2023-04-01T06:37:54;13.55;;;3.60;;
56401;SDS011;42299;35.160;26.100;2023-04-01T06:39:32;16.88;;;4.28;;
56401;SDS011;42299;35.160;26.100;2023-04-01T06:43:14;12.93;;;3.45;;
56401;SDS011;42299;35.160;26.100;2023-04-01T06:45:27;12.13;;;3.22;;
56401;SDS011;42299;35.160;26.100;2023-04-01T06:47:20;17.35;;;3.83;;
56401;SDS011;42299;35.160;26.100;2023-04-01T06:49:16;16.63;;;4.13;;
56401;SDS011;42299;35.160;26.100;2023-04-01T06:51:12;11.32;;;3.67;;
56401;SDS011;42299;35.160;26.100;2023-04-01T06:53:06;12.43;;;2.60;;
56401;SDS011;42299;35.160;26.100;2023-04-01T06:54:53;11.63;;;2.75;;
56401;SDS011;42299;35.160;26.100;2023-04-01T06:56:41;17.30;;;3.35;;
56401;SDS011;42299;35.160;26.100;2023-04-01T06:58:18;16.50;;;3.80;;
56401;SDS011;42299;35.160;26.100;2023-04-01T06:59:42;13.65;;;3.33;;
56401;SDS011;42299;35.160;26.100;2023-04-01T07:01:07;9.93;;;2.72;;
56401;SDS011;42299;35.160;26.100;2023-04-01T07:02:37;14.05;;;3.55;;
56401;SDS011;42299;35.160;26.100;2023-04-01T07:04:05;10.95;;;2.83;;
56401;SDS011;42299;35.160;26.100;2023-04-01T07:05:32;11.75;;;2.90;;
56401;SDS011;42299;35.160;26.100;2023-04-01T07:06:57;15.35;;;4.18;;
56401;SDS011;42299;35.160;26.100;2023-04-01T07:08:23;14.23;;;3.53;;
56401;SDS011;42299;35.160;26.100;2023-04-01T07:09:50;17.27;;;4.05;;
56401;SDS011;42299;35.160;26.100;2023-04-01T07:11:24;14.70;;;3.40;;
56401;SDS011;42299;35.160;26.100;2023-04-01T07:13:20;9.88;;;3.08;;
56401;SDS011;42299;35.160;26.100;2023-04-01T07:14:50;11.57;;;3.17;;
56401;SDS011;42299;35.160;26.100;2023-04-01T07:16:17;14.75;;;3.00;;
56401;SDS011;42299;35.160;26.100;2023-04-01T07:17:49;10.95;;;3.55;;
56401;SDS011;42299;35.160;26.100;2023-04-01T07:19:18;12.65;;;3.45;;
56401;SDS011;42299;35.160;26.100;2023-04-01T07:21:00;13.30;;;4.53;;
56401;SDS011;42299;35.160;26.100;2023-04-01T07:22:26;14.27;;;3.88;;
56401;SDS011;42299;35.160;26.100;2023-04-01T07:24:11;16.63;;;3.45;;
56401;SDS011;42299;35.160;26.100;2023-04-01T07:25:51;10.85;;;3.67;;
56401;SDS011;42299;35.160;26.100;2023-04-01T07:27:26;13.35;;;3.85;;
56401;SDS011;42299;35.160;26.100;2023-04-01T07:28:48;12.63;;;3.50;;
56401;SDS011;42299;35.160;26.100;2023-04-01T07:30:32;12.95;;;3.55;;
56401;SDS011;42299;35.160;26.100;2023-04-01T07:33:58;13.32;;;4.13;;
56401;SDS011;42299;35.160;26.100;2023-04-01T07:35:27;14.02;;;4.85;;
56401;SDS011;42299;35.160;26.100;2023-04-01T07:36:54;17.73;;;5.90;;
56401;SDS011;42299;35.160;26.100;2023-04-01T07:38:24;16.73;;;4.47;;
56401;SDS011;42299;35.160;26.100;2023-04-01T07:39:54;18.05;;;5.05;;
56401;SDS011;42299;35.160;26.100;2023-04-01T07:41:29;14.75;;;6.00;;
56401;SDS011;42299;35.160;26.100;2023-04-01T07:43:05;10.40;;;3.58;;
56401;SDS011;42299;35.160;26.100;2023-04-01T07:44:48;12.95;;;4.20;;
56401;SDS011;42299;35.160;26.100;2023-04-01T07:46:28;17.65;;;4.57;;
56401;SDS011;42299;35.160;26.100;2023-04-01T07:48:07;16.13;;;4.40;;
56401;SDS011;42299;35.160;26.100;2023-04-01T07:49:40;13.15;;;3.95;;
56401;SDS011;42299;35.160;26.100;2023-04-01T07:51:13;15.23;;;4.47;;
56401;SDS011;42299;35.160;26.100;2023-04-01T07:52:44;14.77;;;3.95;;
56401;SDS011;42299;35.160;26.100;2023-04-01T07:54:20;12.80;;;3.75;;
56401;SDS011;42299;35.160;26.100;2023-04-01T07:55:51;12.77;;;3.45;;
56401;SDS011;42299;35.160;26.100;2023-04-01T07:57:27;13.68;;;3.67;;
56401;SDS011;42299;35.160;26.100;2023-04-01T07:58:57;15.85;;;4.00;;
56401;SDS011;42299;35.160;26.100;2023-04-01T08:00:49;12.90;;;4.28;;
56401;SDS011;42299;35.160;26.100;2023-04-01T08:02:29;12.23;;;3.80;;
56401;SDS011;42299;35.160;26.100;2023-04-01T08:04:16;13.80;;;3.70;;
56401;SDS011;42299;35.160;26.100;2023-04-01T08:05:59;13.68;;;4.20;;
56401;SDS011;42299;35.160;26.100;2023-04-01T08:07:28;16.92;;;4.07;;
56401;SDS011;42299;35.160;26.100;2023-04-01T08:09:23;11.30;;;3.85;;
56401;SDS011;42299;35.160;26.100;2023-04-01T08:11:30;12.75;;;3.05;;
56401;SDS011;42299;35.160;26.100;2023-04-01T08:13:24;12.23;;;2.58;;
56401;SDS011;42299;35.160;26.100;2023-04-01T08:15:16;19.33;;;4.03;;
56401;SDS011;42299;35.160;26.100;2023-04-01T08:17:10;14.45;;;3.63;;
56401;SDS011;42299;35.160;26.100;2023-04-01T08:18:46;19.75;;;4.55;;
56401;SDS011;42299;35.160;26.100;2023-04-01T08:20:14;11.00;;;3.38;;
56401;SDS011;42299;35.160;26.100;2023-04-01T08:21:49;14.77;;;3.55;;
56401;SDS011;42299;35.160;26.100;2023-04-01T08:23:15;16.10;;;3.83;;
56401;SDS011;42299;35.160;26.100;2023-04-01T08:24:41;13.45;;;3.55;;
56401;SDS011;42299;35.160;26.100;2023-04-01T08:26:06;13.95;;;3.95;;
56401;SDS011;42299;35.160;26.100;2023-04-01T08:27:37;15.15;;;4.20;;
56401;SDS011;42299;35.160;26.100;2023-04-01T08:29:04;14.23;;;4.45;;
56401;SDS011;42299;35.160;26.100;2023-04-01T08:30:34;11.70;;;3.88;;
56401;SDS011;42299;35.160;26.100;2023-04-01T08:32:05;15.27;;;4.15;;
56401;SDS011;42299;35.160;26.100;2023-04-01T08:33:32;12.68;;;4.28;;
56401;SDS011;42299;35.160;26.100;2023-04-01T08:35:07;11.95;;;3.08;;
56401;SDS011;42299;35.160;26.100;2023-04-01T08:36:37;13.85;;;3.67;;
56401;SDS011;42299;35.160;26.100;2023-04-01T08:38:11;15.75;;;2.95;;
56401;SDS011;42299;35.160;26.100;2023-04-01T08:39:39;15.90;;;4.35;;
56401;SDS011;42299;35.160;26.100;2023-04-01T08:41:13;19.02;;;4.50;;
56401;SDS011;42299;35.160;26.100;2023-04-01T08:43:31;15.48;;;5.00;;
56401;SDS011;42299;35.160;26.100;2023-04-01T08:49:33;17.70;;;5.10;;
56401;SDS011;42299;35.160;26.100;2023-04-01T08:53:23;15.23;;;3.88;;
56401;SDS011;42299;35.160;26.100;2023-04-01T08:55:03;12.23;;;3.22;;